ADDS METAR Data INFO
IDs: Format: Raw Decoded Include TAF

Data at: 1150 UTC 23 Jun 2018

KEUL 231056Z AUTO 27012KT 10SM CLR 17/06 A2995 RMK AO2 SLP121 T01670056
KEUL 230956Z AUTO 27011KT 10SM CLR 17/06 A2995 RMK AO2 SLP121 T01720056
KEUL 230856Z AUTO 26008KT 10SM CLR 18/06 A2994 RMK AO2 SLP117 T01780056 51007
KEUL 230756Z AUTO 27004KT 10SM CLR 19/06 A2994 RMK AO2 SLP116 T01890061
KEUL 230656Z AUTO 30007KT 10SM CLR 21/07 A2993 RMK AO2 SLP112 T02060072 403220128
KEUL 230556Z AUTO 31009KT 10SM CLR 22/08 A2992 RMK AO2 SLP109 T02170083 10322 20217 51020
KEUL 230456Z AUTO 30010KT 10SM FEW110 23/11 A2991 RMK AO2 SLP105 T02330106
KEUL 230356Z AUTO 31009KT 10SM CLR 23/13 A2988 RMK AO2 SLP098 T02330133
KEUL 230256Z AUTO 32010G19KT 10SM CLR 25/13 A2985 RMK AO2 WSHFT 0219 SLP090 T02500128 55005
KEUL 230244Z AUTO 32014KT 10SM CLR 26/13 A2985 RMK AO2 WSHFT 0219
KEUL 230156Z AUTO 17005KT 10SM CLR 31/09 A2983 RMK AO2 SLP080 T03110094
KEUL 230056Z AUTO 01003KT 10SM CLR 32/11 A2984 RMK AO2 SLP086 T03220106
KEUL 222356Z AUTO 30004KT 10SM CLR 32/11 A2987 RMK AO2 SLP095 T03170106 10322 20256 56028
KEUL 222256Z AUTO 05003KT 10SM CLR 31/09 A2990 RMK AO2 SLP104 T03060094
KEUL 222156Z AUTO 08005KT 9SM CLR 31/10 A2993 RMK AO2 SLP114 T03060100
KEUL 222056Z AUTO 06005KT 10SM CLR 29/10 A2996 RMK AO2 SLP124 T02940100 58026
KEUL 221956Z AUTO 01007KT 10SM CLR 29/09 A2999 RMK AO2 SLP138 T02890094
KEUL 221856Z AUTO 02005KT 10SM CLR 28/11 A3001 RMK AO2 SLP145 T02780111
KEUL 221756Z AUTO 00000KT 10SM CLR 26/13 A3004 RMK AO2 SLP153 T02560128 10261 20128 58010
KEUL 221656Z AUTO 35003KT 10SM CLR 24/13 A3006 RMK AO2 SLP161 T02440133
KEUL 221556Z AUTO 00000KT 10SM CLR 21/14 A3008 RMK AO2 SLP167 T02110139
KEUL 221456Z AUTO 10SM CLR 19/13 A3007 RMK AO2 SLP166 T01940133 51004
KEUL 221356Z AUTO 00000KT 10SM CLR 17/12 A3007 RMK AO2 SLP167 T01670122
KEUL 221256Z AUTO 00000KT 10SM FEW002 13/12 A3006 RMK AO2 SLP165 T01330117
KEUL 221247Z AUTO 04003KT 9SM FEW002 13/12 A3006 RMK AO2
KEUL 221156Z AUTO 00000KT 10SM CLR 13/11 A3005 RMK AO2 SLP162 T01280111 10206 20128 51005
KEUL 221056Z AUTO 13003KT 10SM CLR 16/13 A3005 RMK AO2 SLP158 T01560128
KEUL 220956Z AUTO 04005KT 10SM CLR 15/13 A3004 RMK AO2 SLP158 T01500128
KEUL 220856Z AUTO 00000KT 10SM CLR 17/13 A3004 RMK AO2 SLP153 T01670128 53003
KEUL 220756Z AUTO 03005KT 10SM CLR 16/13 A3003 RMK AO2 SLP153 T01560128
KEUL 220656Z AUTO 00000KT 10SM CLR 18/13 A3003 RMK AO2 SLP150 T01780133 402780150
KEUL 220556Z AUTO 00000KT 10SM CLR 21/12 A3003 RMK AO2 SLP151 T02060122 10278 20206 50008
KEUL 220456Z AUTO 00000KT 10SM CLR 22/11 A3004 RMK AO2 SLP153 T02170111
KEUL 220356Z AUTO 00000KT 10SM CLR 23/13 A3002 RMK AO2 SLP146 T02280128
KEUL 220256Z AUTO 31004KT 10SM CLR 24/13 A3000 RMK AO2 SLP142 T02440128 56002
KEUL 220156Z AUTO 31009KT 10SM CLR 26/11 A3001 RMK AO2 SLP143 T02560111
KEUL 220056Z AUTO 32012KT 10SM CLR 27/12 A3001 RMK AO2 SLP144 T02670117
KEUL 212356Z AUTO 27013KT 10SM CLR 27/12 A3001 RMK AO2 SLP145 T02720117 10278 20233 58002